Minerva Grace — SVBN7 — position and weather

sailwx.info

Track history (hours):
 
Tides and Currents Weather Stations Pressure Air Temp Water Temp Dewpoint Dewpoint Depression Visibility Wind Speed Wind Dir Waves Ship Positions

Minerva Grace

Last reported at 2016-May-26 04:34 UTC. Time now 2016-May-26 04:46 UTC.
Position N 36°40' E 013°09'.

Length 183 m; draft 10.1 m.

Type: Ship (hazmat cat A). MMSI: 215925000.

Date/timePositionNaut miles runAvg speedWind from/ knotsBaromVisibWave heightAir tempDewpointWater temp
2016-May-26 04:34N 36°40' E 013°09'1615.9
2016-May-26 03:33N 36°47' E 012°52'1616.1
2016-May-26 02:34N 36°54' E 012°33'1616.3
2016-May-26 01:34N 36°60' E 012°14'1716.5
2016-May-26 00:34N 37°06' E 011°55'1616.2
2016-May-25 23:33N 37°12' E 011°36'1716.5
2016-May-25 22:33N 37°19' E 011°18'1616.6
2016-May-25 21:34N 37°28' E 011°00'1616.1
2016-May-25 20:33N 37°36' E 010°42'1616.1
2016-May-25 19:33N 37°43' E 010°24'1615.6
2016-May-25 18:33N 37°50' E 010°06'1815.6
2016-May-25 17:25N 37°59' E 009°47'1415.5
2016-May-25 16:33N 38°05' E 009°32'1615.6
2016-May-25 15:33N 38°13' E 009°15'1515.4
2016-May-25 14:34N 38°21' E 008°58'1514.9
2016-May-25 13:33N 38°27' E 008°41'10615.0
2016-May-25 06:32N 39°20' E 006°43'3015.3
2016-May-25 04:32N 39°35' E 006°08'4615.2
2016-May-25 01:31N 39°57' E 005°17'1414.8
2016-May-25 00:33N 40°05' E 005°01'7715.5
2016-May-24 19:33N 40°42' E 003°32'1515.0
2016-May-24 18:34N 40°49' E 003°15'1515.2
2016-May-24 17:33N 40°57' E 002°57'1615.8
2016-May-24 16:33N 41°04' E 002°38'  
2016-May-21 18:32N 41°20' E 002°09'2 2.4
2016-May-21 17:33N 41°19' E 002°12'0 0.1
2016-May-21 16:33N 41°19' E 002°12'0 0.0
2016-May-21 14:30N 41°19' E 002°12'0 0.0
2016-May-21 13:33N 41°19' E 002°12'0 0.0
2016-May-21 12:33N 41°19' E 002°12'0 0.0
2016-May-21 11:24N 41°19' E 002°12'0 0.0
2016-May-21 10:33N 41°19' E 002°12'0 0.0
2016-May-21 09:24N 41°19' E 002°12'0 0.0
2016-May-21 08:28N 41°19' E 002°12'5 5.3
2016-May-21 07:33N 41°15' E 002°16'1111.4
2016-May-21 06:33N 41°10' E 002°29'1211.5
2016-May-21 05:33N 41°04' E 002°42'1111.3
2016-May-21 04:33N 40°59' E 002°56'1111.0
2016-May-21 03:33N 40°53' E 003°08'1111.0
2016-May-21 02:33N 40°48' E 003°21'1111.3
2016-May-21 01:33N 40°43' E 003°34'1410.8
2016-May-21 00:16N 40°36' E 003°50'24810.9
2016-May-20 01:27N 38°36' E 008°32'1212.0
2016-May-20 00:26N 38°31' E 008°46'20712.2
2016-May-19 07:31N 36°54' E 012°37'1512.2
2016-May-19 06:20N 36°50' E 012°55'912.1
2016-May-19 05:33N 36°47' E 013°06'1212.2
2016-May-19 04:33N 36°43' E 013°21'1212.2
2016-May-19 03:33N 36°40' E 013°35'1212.3
2016-May-19 02:33N 36°36' E 013°50'1312.7
2016-May-19 01:34N 36°32' E 014°04'1312.8
2016-May-19 00:33N 36°28' E 014°20'1312.6
2016-May-18 23:34N 36°24' E 014°35'1312.5
2016-May-18 22:33N 36°21' E 014°50'1212.3
2016-May-18 21:33N 36°19' E 015°05'1212.3
2016-May-18 20:33N 36°16' E 015°19'1312.5
2016-May-18 19:33N 36°13' E 015°35'  
Track history (hours):
 
Tides and Currents Weather Stations Pressure Air Temp Water Temp Dewpoint Dewpoint Depression Visibility Wind Speed Wind Dir Waves Ship Positions

Minerva Grace

Last reported at 2016-May-26 04:34 UTC. Time now 2016-May-26 04:46 UTC.
Position N 36°40' E 013°09'.

Length 183 m; draft 10.1 m.

Type: Ship (hazmat cat A). MMSI: 215925000.

Date/timePositionNaut miles runAvg speedWind from/ knotsBaromVisibWave heightAir tempDewpointWater temp
2016-May-26 04:34N 36°40' E 013°09'1615.9
2016-May-26 03:33N 36°47' E 012°52'1616.1
2016-May-26 02:34N 36°54' E 012°33'1616.3
2016-May-26 01:34N 36°60' E 012°14'1716.5
2016-May-26 00:34N 37°06' E 011°55'1616.2
2016-May-25 23:33N 37°12' E 011°36'1716.5
2016-May-25 22:33N 37°19' E 011°18'1616.6
2016-May-25 21:34N 37°28' E 011°00'1616.1
2016-May-25 20:33N 37°36' E 010°42'1616.1
2016-May-25 19:33N 37°43' E 010°24'1615.6
2016-May-25 18:33N 37°50' E 010°06'1815.6
2016-May-25 17:25N 37°59' E 009°47'1415.5
2016-May-25 16:33N 38°05' E 009°32'1615.6
2016-May-25 15:33N 38°13' E 009°15'1515.4
2016-May-25 14:34N 38°21' E 008°58'1514.9
2016-May-25 13:33N 38°27' E 008°41'10615.0
2016-May-25 06:32N 39°20' E 006°43'3015.3
2016-May-25 04:32N 39°35' E 006°08'4615.2
2016-May-25 01:31N 39°57' E 005°17'1414.8
2016-May-25 00:33N 40°05' E 005°01'7715.5
2016-May-24 19:33N 40°42' E 003°32'1515.0
2016-May-24 18:34N 40°49' E 003°15'1515.2
2016-May-24 17:33N 40°57' E 002°57'1615.8
2016-May-24 16:33N 41°04' E 002°38'  
2016-May-21 18:32N 41°20' E 002°09'2 2.4
2016-May-21 17:33N 41°19' E 002°12'0 0.1
2016-May-21 16:33N 41°19' E 002°12'0 0.0
2016-May-21 14:30N 41°19' E 002°12'0 0.0
2016-May-21 13:33N 41°19' E 002°12'0 0.0
2016-May-21 12:33N 41°19' E 002°12'0 0.0
2016-May-21 11:24N 41°19' E 002°12'0 0.0
2016-May-21 10:33N 41°19' E 002°12'0 0.0
2016-May-21 09:24N 41°19' E 002°12'0 0.0
2016-May-21 08:28N 41°19' E 002°12'5 5.3
2016-May-21 07:33N 41°15' E 002°16'1111.4
2016-May-21 06:33N 41°10' E 002°29'1211.5
2016-May-21 05:33N 41°04' E 002°42'1111.3
2016-May-21 04:33N 40°59' E 002°56'1111.0
2016-May-21 03:33N 40°53' E 003°08'1111.0
2016-May-21 02:33N 40°48' E 003°21'1111.3
2016-May-21 01:33N 40°43' E 003°34'1410.8
2016-May-21 00:16N 40°36' E 003°50'24810.9
2016-May-20 01:27N 38°36' E 008°32'1212.0
2016-May-20 00:26N 38°31' E 008°46'20712.2
2016-May-19 07:31N 36°54' E 012°37'1512.2
2016-May-19 06:20N 36°50' E 012°55'912.1
2016-May-19 05:33N 36°47' E 013°06'1212.2
2016-May-19 04:33N 36°43' E 013°21'1212.2
2016-May-19 03:33N 36°40' E 013°35'1212.3
2016-May-19 02:33N 36°36' E 013°50'1312.7
2016-May-19 01:34N 36°32' E 014°04'1312.8
2016-May-19 00:33N 36°28' E 014°20'1312.6
2016-May-18 23:34N 36°24' E 014°35'1312.5
2016-May-18 22:33N 36°21' E 014°50'1212.3
2016-May-18 21:33N 36°19' E 015°05'1212.3
2016-May-18 20:33N 36°16' E 015°19'1312.5
2016-May-18 19:33N 36°13' E 015°35'  

Dump ship's entire track history